createdAt,value
2018-09-24T00:01:23.389Z,19.60
2018-09-24T00:03:52.049Z,19.60
2018-09-24T00:06:20.864Z,19.60
2018-09-24T00:08:48.559Z,19.70
2018-09-24T00:11:16.327Z,19.60
2018-09-24T00:13:43.992Z,19.70
2018-09-24T00:16:11.669Z,19.60
2018-09-24T00:18:40.213Z,19.70
2018-09-24T00:21:08.823Z,19.60
2018-09-24T00:23:37.377Z,19.60
2018-09-24T00:26:05.720Z,19.60
2018-09-24T00:28:34.170Z,19.60
2018-09-24T00:31:01.832Z,19.60
2018-09-24T00:33:29.511Z,19.60
2018-09-24T00:35:57.184Z,19.60
2018-09-24T00:38:24.908Z,19.60
2018-09-24T00:40:53.448Z,19.60
2018-09-24T00:43:22.199Z,19.70
2018-09-24T00:45:50.868Z,19.70
2018-09-24T00:48:19.576Z,19.70
2018-09-24T00:50:47.252Z,19.60
2018-09-24T00:53:14.919Z,19.60
2018-09-24T00:55:43.619Z,19.60
2018-09-24T00:58:12.284Z,19.60
2018-09-24T01:00:39.983Z,19.70
2018-09-24T01:03:08.658Z,19.60
2018-09-24T01:05:36.371Z,19.60
2018-09-24T01:08:05.750Z,19.60
2018-09-24T01:10:35.003Z,19.60
2018-09-24T01:13:02.681Z,19.60
2018-09-24T01:15:30.437Z,19.60
2018-09-24T01:17:59.163Z,19.60
2018-09-24T01:20:27.857Z,19.60
2018-09-24T01:22:55.568Z,19.60
2018-09-24T01:25:24.337Z,19.60
2018-09-24T01:27:52.003Z,19.60
2018-09-24T01:30:19.667Z,19.60
2018-09-24T01:32:48.224Z,19.60
2018-09-24T01:35:15.905Z,19.60
2018-09-24T01:37:44.576Z,19.60
2018-09-24T01:40:12.261Z,19.60
2018-09-24T01:42:40.955Z,19.60
2018-09-24T01:45:08.629Z,19.60
2018-09-24T01:47:37.182Z,19.60
2018-09-24T01:50:05.756Z,19.60
2018-09-24T01:52:35.219Z,19.60
2018-09-24T01:55:02.893Z,19.60
2018-09-24T01:57:30.712Z,19.50
2018-09-24T01:59:59.286Z,19.60
2018-09-24T02:02:26.993Z,19.50
2018-09-24T02:04:55.665Z,19.50
2018-09-24T02:07:24.356Z,19.50
2018-09-24T02:09:53.518Z,19.50
2018-09-24T02:12:22.248Z,19.50
2018-09-24T02:14:49.904Z,19.50
2018-09-24T02:17:21.906Z,19.50
2018-09-24T02:19:51.185Z,19.50
2018-09-24T02:22:25.784Z,19.50
2018-09-24T02:24:55.368Z,19.50
2018-09-24T02:27:23.572Z,19.50
2018-09-24T02:29:52.272Z,19.50
2018-09-24T02:32:20.909Z,19.50
2018-09-24T02:34:50.743Z,19.50
2018-09-24T02:37:19.457Z,19.50
2018-09-24T02:39:48.149Z,19.50
2018-09-24T02:42:16.856Z,19.50
2018-09-24T02:44:45.523Z,19.50
2018-09-24T02:47:14.061Z,19.50
2018-09-24T02:49:41.738Z,19.50
2018-09-24T02:52:10.437Z,19.50
2018-09-24T02:54:39.108Z,19.50
2018-09-24T02:57:07.792Z,19.50
2018-09-24T02:59:36.660Z,19.50
2018-09-24T03:02:06.313Z,19.50
2018-09-24T03:04:35.624Z,19.50
2018-09-24T03:07:05.249Z,19.50
2018-09-24T03:09:35.758Z,19.50
2018-09-24T03:12:05.207Z,19.50
2018-09-24T03:14:33.788Z,19.50
2018-09-24T03:17:02.464Z,19.40
2018-09-24T03:19:31.160Z,19.50
2018-09-24T03:21:59.876Z,19.40
2018-09-24T03:24:28.567Z,19.40
2018-09-24T03:26:56.294Z,19.50
2018-09-24T03:29:26.528Z,19.40
2018-09-24T03:31:56.306Z,19.40
2018-09-24T03:34:24.434Z,19.40
2018-09-24T03:36:53.633Z,19.40
2018-09-24T03:39:22.307Z,19.50
2018-09-24T03:41:50.028Z,19.40
2018-09-24T03:44:18.576Z,19.40
2018-09-24T03:46:46.257Z,19.40
2018-09-24T03:49:14.940Z,19.40
2018-09-24T03:51:42.685Z,19.40
2018-09-24T03:54:11.599Z,19.40
2018-09-24T03:56:39.375Z,19.40
2018-09-24T03:59:07.135Z,19.40
2018-09-24T04:01:35.340Z,19.40
2018-09-24T04:04:09.600Z,19.40
2018-09-24T04:06:42.710Z,19.40
2018-09-24T04:09:15.949Z,19.40
2018-09-24T04:11:49.044Z,19.40
2018-09-24T04:14:22.235Z,19.40
2018-09-24T04:16:55.360Z,19.40
2018-09-24T04:19:29.678Z,19.40
2018-09-24T04:22:02.811Z,19.40
2018-09-24T04:24:36.031Z,19.40
2018-09-24T04:27:09.120Z,19.30
2018-09-24T04:29:43.256Z,19.40
2018-09-24T04:32:16.660Z,19.40
2018-09-24T04:34:49.831Z,19.30
2018-09-24T04:37:23.608Z,19.30
2018-09-24T04:39:56.795Z,19.30
2018-09-24T04:42:31.212Z,19.30
2018-09-24T04:45:04.814Z,19.30
2018-09-24T04:47:38.092Z,19.30
2018-09-24T04:50:11.739Z,19.30
2018-09-24T04:52:44.861Z,19.30
2018-09-24T04:55:17.940Z,19.30
2018-09-24T04:57:51.095Z,19.30
2018-09-24T05:00:24.343Z,19.40
2018-09-24T05:02:57.578Z,19.30
2018-09-24T05:05:31.604Z,19.30
2018-09-24T05:08:04.872Z,19.30
2018-09-24T05:10:39.029Z,19.30
2018-09-24T05:13:12.179Z,19.30
2018-09-24T05:15:45.306Z,19.30
2018-09-24T05:18:18.475Z,19.30
2018-09-24T05:20:51.516Z,19.30
2018-09-24T05:23:24.845Z,19.30
2018-09-24T05:25:57.959Z,19.30
2018-09-24T05:28:31.655Z,19.30
2018-09-24T05:31:06.858Z,19.30
2018-09-24T05:33:40.084Z,19.30
2018-09-24T05:36:13.236Z,19.30
2018-09-24T05:38:46.540Z,19.30
2018-09-24T05:41:20.862Z,19.30
2018-09-24T05:43:54.021Z,19.30
2018-09-24T05:46:27.219Z,19.20
2018-09-24T05:49:01.213Z,19.20
2018-09-24T05:51:34.915Z,19.20
2018-09-24T05:54:08.156Z,19.20
2018-09-24T05:56:41.704Z,19.20
2018-09-24T05:59:14.768Z,19.20
2018-09-24T06:01:47.895Z,19.20
2018-09-24T06:04:21.056Z,19.20
2018-09-24T06:06:54.151Z,19.20
2018-09-24T06:09:27.307Z,19.30
2018-09-24T06:12:01.624Z,19.40
2018-09-24T06:14:35.257Z,19.50
2018-09-24T06:17:08.446Z,19.60
2018-09-24T06:19:41.896Z,19.60
2018-09-24T06:22:15.221Z,19.60
2018-09-24T06:24:48.313Z,19.70
2018-09-24T06:27:21.619Z,19.80
2018-09-24T06:29:55.611Z,19.90
2018-09-24T06:32:28.724Z,19.90
2018-09-24T06:35:02.598Z,19.90
2018-09-24T06:37:35.684Z,19.90
2018-09-24T06:40:08.772Z,19.90
2018-09-24T06:42:41.848Z,19.90
2018-09-24T06:45:14.927Z,19.90
2018-09-24T06:47:48.032Z,19.90
2018-09-24T06:50:21.193Z,19.80
2018-09-24T06:52:54.261Z,19.80
2018-09-24T06:55:36.992Z,19.80
2018-09-24T06:58:10.137Z,19.80
2018-09-24T07:00:43.311Z,19.80
2018-09-24T07:03:16.472Z,19.80
2018-09-24T07:05:49.557Z,19.80
2018-09-24T07:08:22.744Z,19.80
2018-09-24T07:10:55.820Z,19.80
2018-09-24T07:13:29.073Z,19.80
2018-09-24T07:16:02.248Z,19.80
2018-09-24T07:18:35.420Z,19.70
2018-09-24T07:21:08.533Z,19.70
2018-09-24T07:23:41.623Z,19.70
2018-09-24T07:26:14.735Z,19.70
2018-09-24T07:28:47.951Z,19.70
2018-09-24T07:31:28.077Z,19.70
2018-09-24T07:34:01.140Z,19.70
2018-09-24T07:36:35.824Z,19.70
2018-09-24T07:39:09.796Z,19.70
2018-09-24T07:41:43.631Z,19.70
2018-09-24T07:44:17.498Z,19.70
2018-09-24T07:46:50.545Z,19.70
2018-09-24T07:49:23.673Z,19.70
2018-09-24T07:51:57.552Z,19.70
2018-09-24T07:54:33.166Z,19.70
2018-09-24T07:57:06.265Z,19.70
2018-09-24T07:59:39.309Z,19.70
2018-09-24T08:02:12.443Z,19.70
2018-09-24T08:04:45.531Z,19.70
2018-09-24T08:07:18.598Z,19.70
2018-09-24T08:09:51.765Z,19.70
2018-09-24T08:12:24.883Z,19.70
2018-09-24T08:14:58.049Z,19.70
2018-09-24T08:17:31.210Z,19.70
2018-09-24T08:20:05.074Z,19.70
2018-09-24T08:22:38.932Z,19.70
2018-09-24T08:25:12.194Z,19.70
2018-09-24T08:27:45.259Z,19.70
2018-09-24T08:30:19.177Z,19.70
2018-09-24T08:32:52.476Z,19.70
2018-09-24T08:35:25.728Z,19.70
2018-09-24T08:37:58.929Z,19.70
2018-09-24T08:40:32.885Z,19.70
2018-09-24T08:43:07.096Z,19.70
2018-09-24T08:45:40.215Z,19.60
2018-09-24T08:48:13.335Z,19.70
2018-09-24T08:50:47.223Z,19.60
2018-09-24T08:53:20.419Z,19.70
2018-09-24T08:55:54.816Z,19.60
2018-09-24T08:58:28.072Z,19.60
2018-09-24T09:01:01.931Z,19.60
2018-09-24T09:03:35.056Z,19.60
2018-09-24T09:06:08.970Z,19.70
2018-09-24T09:08:42.023Z,19.60
2018-09-24T09:11:15.924Z,19.60
2018-09-24T09:13:49.812Z,19.60
2018-09-24T09:16:22.964Z,19.60
2018-09-24T09:18:56.196Z,19.60
2018-09-24T09:21:31.617Z,19.60
2018-09-24T09:24:05.534Z,19.70
2018-09-24T09:26:39.480Z,19.60
2018-09-24T09:29:13.842Z,19.60
2018-09-24T09:31:47.856Z,19.60
2018-09-24T09:34:21.763Z,19.60
2018-09-24T09:36:55.677Z,19.60
2018-09-24T09:39:29.492Z,19.60
2018-09-24T09:42:02.547Z,19.60
2018-09-24T09:44:36.439Z,19.60
2018-09-24T09:47:09.600Z,19.60
2018-09-24T09:49:43.463Z,19.60
2018-09-24T09:52:16.608Z,19.60
2018-09-24T09:54:49.758Z,19.60
2018-09-24T09:57:22.858Z,19.60
2018-09-24T09:59:56.000Z,19.60
2018-09-24T10:02:29.102Z,19.60
2018-09-24T10:05:03.059Z,19.60
2018-09-24T10:07:36.212Z,19.60
2018-09-24T10:10:10.372Z,19.60
2018-09-24T10:12:43.478Z,19.60
2018-09-24T10:15:17.656Z,19.60
2018-09-24T10:17:51.512Z,19.60
2018-09-24T10:20:25.665Z,19.60
2018-09-24T10:22:59.530Z,19.50
2018-09-24T10:25:34.407Z,19.60
2018-09-24T10:28:08.538Z,19.60
2018-09-24T10:30:42.711Z,19.60
2018-09-24T10:33:16.696Z,19.60
2018-09-24T10:35:50.584Z,19.60
2018-09-24T10:38:24.653Z,19.60
2018-09-24T10:40:58.541Z,19.60
2018-09-24T10:43:32.832Z,19.60
2018-09-24T10:46:06.818Z,19.60
2018-09-24T10:48:40.933Z,19.50
2018-09-24T10:51:14.028Z,19.50
2018-09-24T10:53:47.205Z,19.50
2018-09-24T10:56:21.333Z,19.50
2018-09-24T10:58:55.218Z,19.50
2018-09-24T11:01:29.592Z,19.50
2018-09-24T11:04:04.380Z,19.50
2018-09-24T11:06:38.597Z,19.50
2018-09-24T11:09:13.163Z,19.50
2018-09-24T11:11:47.103Z,19.50
2018-09-24T11:14:20.948Z,19.50
2018-09-24T11:16:55.159Z,19.50
2018-09-24T11:19:29.411Z,19.50
2018-09-24T11:22:04.080Z,19.50
2018-09-24T11:24:37.360Z,19.50
2018-09-24T11:27:11.499Z,19.50
2018-09-24T11:29:44.738Z,19.50
2018-09-24T11:32:18.675Z,19.50
2018-09-24T11:34:52.548Z,19.50
2018-09-24T11:37:26.796Z,19.50
2018-09-24T11:40:02.258Z,19.50
2018-09-24T11:42:36.019Z,19.50
2018-09-24T11:45:09.960Z,19.50
2018-09-24T11:47:43.893Z,19.60
2018-09-24T11:50:17.996Z,19.50
2018-09-24T11:52:51.809Z,19.50
2018-09-24T11:55:25.748Z,19.50
2018-09-24T11:57:59.644Z,19.50
2018-09-24T12:00:34.287Z,19.50
2018-09-24T12:03:08.129Z,19.50
2018-09-24T12:05:41.993Z,19.50
2018-09-24T12:08:15.923Z,19.50
2018-09-24T12:10:49.900Z,19.50
2018-09-24T12:13:24.913Z,19.50
2018-09-24T12:15:58.884Z,19.40
2018-09-24T12:18:31.950Z,19.40
2018-09-24T12:21:06.192Z,19.40
2018-09-24T12:23:39.456Z,19.30
2018-09-24T12:26:12.571Z,19.30
2018-09-24T12:28:45.688Z,19.30
2018-09-24T12:31:19.624Z,19.40
2018-09-24T12:33:53.492Z,19.40
2018-09-24T12:36:27.388Z,19.40
2018-09-24T12:39:01.551Z,19.40
2018-09-24T12:41:34.742Z,19.40
2018-09-24T12:44:08.566Z,19.40
2018-09-24T12:46:43.013Z,19.40
2018-09-24T12:49:17.316Z,19.50
2018-09-24T12:51:50.531Z,19.40
2018-09-24T12:54:24.419Z,19.40
2018-09-24T12:56:57.505Z,19.40
2018-09-24T12:59:31.632Z,19.40
2018-09-24T13:02:04.768Z,19.30
2018-09-24T13:04:38.611Z,19.30
2018-09-24T13:07:11.704Z,19.30
2018-09-24T13:09:44.797Z,19.30
2018-09-24T13:12:18.683Z,19.30
2018-09-24T13:14:52.733Z,19.30
2018-09-24T13:17:25.787Z,19.40
2018-09-24T13:19:59.731Z,19.40
2018-09-24T13:22:34.347Z,19.40
2018-09-24T13:25:08.192Z,19.40
2018-09-24T13:27:41.328Z,19.40
2018-09-24T13:30:14.423Z,19.40
2018-09-24T13:32:47.541Z,19.40
2018-09-24T13:35:20.653Z,19.40
2018-09-24T13:37:54.952Z,19.40
2018-09-24T13:40:28.203Z,19.50
2018-09-24T13:43:01.304Z,19.50
2018-09-24T13:45:34.817Z,19.50
2018-09-24T13:48:07.937Z,19.40
2018-09-24T13:50:42.948Z,19.40
2018-09-24T13:53:16.839Z,19.40
2018-09-24T13:55:49.984Z,19.40
2018-09-24T13:58:23.104Z,19.40
2018-09-24T14:00:56.288Z,19.40
2018-09-24T14:03:29.356Z,19.40
2018-09-24T14:06:02.416Z,19.40
2018-09-24T14:08:35.930Z,19.40
2018-09-24T14:11:09.191Z,19.40
2018-09-24T14:13:43.140Z,19.40
2018-09-24T14:16:16.092Z,19.40
2018-09-24T14:18:49.980Z,19.40
2018-09-24T14:21:25.380Z,19.40
2018-09-24T14:23:58.504Z,19.40
2018-09-24T14:26:32.500Z,19.40
2018-09-24T14:29:06.437Z,19.40
2018-09-24T14:31:41.202Z,19.40
2018-09-24T14:34:14.275Z,19.40
2018-09-24T14:36:48.415Z,19.40
2018-09-24T14:39:22.247Z,19.40
2018-09-24T14:41:56.334Z,19.40
2018-09-24T14:44:30.964Z,19.40
2018-09-24T14:47:05.018Z,19.40
2018-09-24T14:49:38.235Z,19.40
2018-09-24T14:52:12.088Z,19.40
2018-09-24T14:54:46.116Z,19.40
2018-09-24T14:57:19.988Z,19.40
2018-09-24T14:59:53.181Z,19.40
2018-09-24T15:02:28.031Z,19.40
2018-09-24T15:05:01.978Z,19.40
2018-09-24T15:07:35.155Z,19.40
2018-09-24T15:10:08.262Z,19.30
2018-09-24T15:12:42.252Z,19.30
2018-09-24T15:15:16.324Z,19.30
2018-09-24T15:17:50.475Z,19.30
2018-09-24T15:20:24.704Z,19.30
2018-09-24T15:22:57.781Z,19.30
2018-09-24T15:25:32.592Z,19.30
2018-09-24T15:28:06.416Z,19.30
2018-09-24T15:30:39.659Z,19.30
2018-09-24T15:33:13.892Z,19.30
2018-09-24T15:35:47.012Z,19.30
2018-09-24T15:38:20.100Z,19.30
2018-09-24T15:40:53.201Z,19.30
2018-09-24T15:43:27.032Z,19.30
2018-09-24T15:46:00.079Z,19.30
2018-09-24T15:48:33.164Z,19.20
2018-09-24T15:51:06.255Z,19.10
2018-09-24T15:53:39.380Z,19.20
2018-09-24T15:56:12.423Z,19.20
2018-09-24T15:58:45.559Z,19.30
2018-09-24T16:01:18.700Z,19.30
2018-09-24T16:03:51.812Z,19.30
2018-09-24T16:06:25.206Z,19.30
2018-09-24T16:08:58.278Z,19.30
2018-09-24T16:11:31.715Z,19.30
2018-09-24T16:14:04.903Z,19.30
2018-09-24T16:16:37.923Z,19.30
2018-09-24T16:19:11.936Z,19.30
2018-09-24T16:21:45.060Z,19.00
2018-09-24T16:24:18.116Z,18.80
2018-09-24T16:26:51.260Z,18.60
2018-09-24T16:29:24.429Z,18.60
2018-09-24T16:31:57.590Z,18.80
2018-09-24T16:34:31.553Z,18.90
2018-09-24T16:37:05.520Z,19.10
2018-09-24T16:39:38.619Z,19.10
2018-09-24T16:42:12.761Z,19.20
2018-09-24T16:44:45.820Z,19.20
2018-09-24T16:47:19.771Z,19.20
2018-09-24T16:49:55.108Z,19.20
2018-09-24T16:52:29.269Z,19.20
2018-09-24T16:55:03.084Z,19.30
2018-09-24T16:57:36.284Z,19.30
2018-09-24T17:00:09.388Z,19.30
2018-09-24T17:02:42.580Z,19.20
2018-09-24T17:05:16.500Z,19.20
2018-09-24T17:07:50.515Z,19.30
2018-09-24T17:10:23.632Z,19.20
2018-09-24T17:12:57.542Z,19.20
2018-09-24T17:15:31.752Z,19.20
2018-09-24T17:18:04.832Z,19.20
2018-09-24T17:20:38.010Z,19.20
2018-09-24T17:23:13.464Z,19.20
2018-09-24T17:25:46.600Z,19.20
2018-09-24T17:28:19.716Z,19.10
2018-09-24T17:30:52.796Z,19.10
2018-09-24T17:33:25.873Z,19.10
2018-09-24T17:35:58.946Z,19.10
2018-09-24T17:38:32.099Z,18.80
2018-09-24T17:41:06.253Z,18.70
2018-09-24T17:43:39.537Z,18.70
2018-09-24T17:46:13.679Z,18.60
2018-09-24T17:48:46.828Z,18.60
2018-09-24T17:51:19.985Z,18.60
2018-09-24T17:53:53.112Z,18.60
2018-09-24T17:56:26.408Z,18.50
2018-09-24T17:58:59.644Z,18.50
2018-09-24T18:01:32.797Z,18.50
2018-09-24T18:04:05.868Z,18.40
2018-09-24T18:06:39.020Z,18.40
2018-09-24T18:09:13.081Z,18.40
2018-09-24T18:11:46.211Z,18.40
2018-09-24T18:14:19.288Z,18.40
2018-09-24T18:16:52.456Z,18.30
2018-09-24T18:19:25.516Z,18.30
2018-09-24T18:22:00.582Z,18.30
2018-09-24T18:24:34.750Z,18.30
2018-09-24T18:27:08.724Z,18.20
2018-09-24T18:29:42.903Z,18.30
2018-09-24T18:32:16.108Z,18.20
2018-09-24T18:34:50.339Z,18.10
2018-09-24T18:37:24.964Z,18.20
2018-09-24T18:39:59.100Z,18.20
2018-09-24T18:42:32.220Z,18.30
2018-09-24T18:45:06.143Z,18.50
2018-09-24T18:47:41.310Z,18.60
2018-09-24T18:50:15.240Z,18.70
2018-09-24T18:52:48.565Z,18.70
2018-09-24T18:55:21.782Z,18.80
2018-09-24T18:57:54.907Z,18.90
2018-09-24T19:00:28.028Z,18.90
2018-09-24T19:03:02.564Z,19.00
2018-09-24T19:05:35.819Z,18.90
2018-09-24T19:08:09.720Z,18.90
2018-09-24T19:10:42.856Z,18.90
2018-09-24T19:13:16.788Z,18.90
2018-09-24T19:15:50.819Z,18.90
2018-09-24T19:18:24.741Z,18.90
2018-09-24T19:20:58.672Z,18.90
2018-09-24T19:23:31.889Z,19.00
2018-09-24T19:26:05.751Z,18.90
2018-09-24T19:28:38.947Z,18.90
2018-09-24T19:31:12.841Z,19.00
2018-09-24T19:33:46.755Z,19.00
2018-09-24T19:36:20.571Z,19.00
2018-09-24T19:38:54.812Z,19.00
2018-09-24T19:41:28.681Z,19.00
2018-09-24T19:44:01.813Z,19.00
2018-09-24T19:46:35.875Z,19.00
2018-09-24T19:49:10.148Z,19.00
2018-09-24T19:51:44.153Z,19.00
2018-09-24T19:54:18.057Z,19.00
2018-09-24T19:56:51.916Z,19.00
2018-09-24T19:59:25.941Z,19.10
2018-09-24T20:01:59.167Z,19.00
2018-09-24T20:04:32.996Z,19.00
2018-09-24T20:07:06.128Z,19.00
2018-09-24T20:09:39.274Z,19.00
2018-09-24T20:12:13.501Z,19.00
2018-09-24T20:14:47.388Z,19.00
2018-09-24T20:17:21.393Z,19.00
2018-09-24T20:19:55.271Z,19.00
2018-09-24T20:22:29.251Z,19.00
2018-09-24T20:25:04.393Z,19.00
2018-09-24T20:27:38.883Z,19.10
2018-09-24T20:30:12.156Z,19.10
2018-09-24T20:32:46.520Z,19.00
2018-09-24T20:35:19.692Z,19.10
2018-09-24T20:37:52.801Z,19.00
2018-09-24T20:40:26.932Z,19.00
2018-09-24T20:43:01.164Z,19.00
2018-09-24T20:45:35.100Z,19.00
2018-09-24T20:48:09.357Z,19.00
2018-09-24T20:50:42.523Z,19.00
2018-09-24T20:53:16.645Z,19.00
2018-09-24T20:55:50.497Z,19.00
2018-09-24T20:58:24.178Z,19.00
2018-09-24T21:00:57.448Z,19.00
2018-09-24T21:03:31.436Z,19.00
2018-09-24T21:06:05.603Z,19.00
2018-09-24T21:08:38.967Z,19.00
2018-09-24T21:11:12.139Z,19.00
2018-09-24T21:13:45.108Z,19.00
2018-09-24T21:16:19.039Z,19.00
2018-09-24T21:18:52.891Z,19.00
2018-09-24T21:21:26.723Z,19.00
2018-09-24T21:24:02.191Z,19.00
2018-09-24T21:26:36.124Z,19.00
2018-09-24T21:29:09.419Z,19.00
2018-09-24T21:31:43.308Z,19.00
2018-09-24T21:34:16.416Z,19.00
2018-09-24T21:36:49.866Z,19.00
2018-09-24T21:39:23.280Z,19.00
2018-09-24T21:41:57.227Z,19.00
2018-09-24T21:44:30.409Z,19.00
2018-09-24T21:47:04.442Z,19.00
2018-09-24T21:49:37.528Z,19.00
2018-09-24T21:52:11.265Z,19.00
2018-09-24T21:54:44.396Z,19.00
2018-09-24T21:57:18.269Z,19.00
2018-09-24T21:59:52.383Z,19.00
2018-09-24T22:02:26.359Z,19.00
2018-09-24T22:04:59.539Z,19.00
2018-09-24T22:07:34.936Z,18.90
2018-09-24T22:10:08.944Z,19.00
2018-09-24T22:12:43.424Z,18.90
2018-09-24T22:15:17.288Z,19.00
2018-09-24T22:17:51.508Z,19.00
2018-09-24T22:20:25.371Z,18.90
2018-09-24T22:22:59.516Z,18.90
2018-09-24T22:25:35.045Z,18.90
2018-09-24T22:28:08.996Z,18.90
2018-09-24T22:30:42.931Z,19.00
2018-09-24T22:33:16.780Z,19.00
2018-09-24T22:35:50.712Z,19.00
2018-09-24T22:38:24.652Z,18.90
2018-09-24T22:40:57.804Z,18.90
2018-09-24T22:43:31.871Z,18.90
2018-09-24T22:46:06.032Z,18.90
2018-09-24T22:48:39.968Z,18.90
2018-09-24T22:51:14.080Z,18.90
2018-09-24T22:53:47.875Z,18.90
2018-09-24T22:56:21.783Z,18.90
2018-09-24T22:58:54.959Z,18.90
2018-09-24T23:01:28.229Z,18.90
2018-09-24T23:04:01.672Z,19.00
2018-09-24T23:06:34.931Z,19.00
2018-09-24T23:09:08.001Z,18.90
2018-09-24T23:11:41.743Z,19.00
2018-09-24T23:14:14.812Z,18.90
2018-09-24T23:16:47.976Z,18.90
2018-09-24T23:19:21.092Z,18.90
2018-09-24T23:21:54.245Z,18.90
2018-09-24T23:24:27.343Z,19.00
2018-09-24T23:27:00.459Z,18.90
2018-09-24T23:29:34.623Z,18.90
2018-09-24T23:32:07.732Z,18.90
2018-09-24T23:34:41.621Z,18.90
2018-09-24T23:37:14.779Z,18.90
2018-09-24T23:39:47.868Z,18.90
2018-09-24T23:42:20.987Z,18.90
2018-09-24T23:44:55.257Z,18.90
2018-09-24T23:47:28.492Z,18.90
2018-09-24T23:50:01.581Z,18.90
2018-09-24T23:52:34.692Z,18.90
2018-09-24T23:55:07.718Z,18.90
2018-09-24T23:57:41.433Z,18.90
